sensor_id;sensor_type;location;lat;lon;timestamp;P1;durP1;ratioP1;P2;durP2;ratioP2
11988;SDS011;6054;50.966;7.094;2022-12-20T00:01:54;4.47;;;2.15;;
11988;SDS011;6054;50.966;7.094;2022-12-20T00:04:21;2.85;;;1.90;;
11988;SDS011;6054;50.966;7.094;2022-12-20T00:06:49;4.55;;;2.17;;
11988;SDS011;6054;50.966;7.094;2022-12-20T00:09:16;6.22;;;1.98;;
11988;SDS011;6054;50.966;7.094;2022-12-20T00:11:43;2.03;;;1.80;;
11988;SDS011;6054;50.966;7.094;2022-12-20T00:14:10;3.75;;;1.95;;
11988;SDS011;6054;50.966;7.094;2022-12-20T00:16:37;3.13;;;1.90;;
11988;SDS011;6054;50.966;7.094;2022-12-20T00:19:04;3.22;;;1.90;;
11988;SDS011;6054;50.966;7.094;2022-12-20T00:21:32;3.10;;;2.00;;
11988;SDS011;6054;50.966;7.094;2022-12-20T00:24:01;3.60;;;1.83;;
11988;SDS011;6054;50.966;7.094;2022-12-20T00:26:29;2.30;;;1.73;;
11988;SDS011;6054;50.966;7.094;2022-12-20T00:28:58;3.22;;;2.08;;
11988;SDS011;6054;50.966;7.094;2022-12-20T00:31:26;3.10;;;1.73;;
11988;SDS011;6054;50.966;7.094;2022-12-20T00:33:55;2.25;;;2.15;;
11988;SDS011;6054;50.966;7.094;2022-12-20T00:36:23;2.35;;;1.80;;
11988;SDS011;6054;50.966;7.094;2022-12-20T00:38:52;1.90;;;1.70;;
11988;SDS011;6054;50.966;7.094;2022-12-20T00:41:22;2.25;;;1.80;;
11988;SDS011;6054;50.966;7.094;2022-12-20T00:43:51;2.40;;;1.85;;
11988;SDS011;6054;50.966;7.094;2022-12-20T00:46:19;3.08;;;2.15;;
11988;SDS011;6054;50.966;7.094;2022-12-20T00:48:47;3.40;;;2.08;;
11988;SDS011;6054;50.966;7.094;2022-12-20T00:51:15;2.33;;;1.90;;
11988;SDS011;6054;50.966;7.094;2022-12-20T00:53:45;2.42;;;2.00;;
11988;SDS011;6054;50.966;7.094;2022-12-20T00:56:12;2.05;;;1.85;;
11988;SDS011;6054;50.966;7.094;2022-12-20T00:58:41;2.33;;;2.00;;
11988;SDS011;6054;50.966;7.094;2022-12-20T01:01:13;2.70;;;1.98;;
11988;SDS011;6054;50.966;7.094;2022-12-20T01:03:42;3.88;;;1.73;;
11988;SDS011;6054;50.966;7.094;2022-12-20T01:06:09;3.55;;;1.90;;
11988;SDS011;6054;50.966;7.094;2022-12-20T01:08:37;2.92;;;2.28;;
11988;SDS011;6054;50.966;7.094;2022-12-20T01:11:05;2.10;;;2.00;;
11988;SDS011;6054;50.966;7.094;2022-12-20T01:13:34;2.42;;;1.85;;
11988;SDS011;6054;50.966;7.094;2022-12-20T01:16:05;2.97;;;2.10;;
11988;SDS011;6054;50.966;7.094;2022-12-20T01:18:32;6.32;;;2.33;;
11988;SDS011;6054;50.966;7.094;2022-12-20T01:21:00;3.15;;;2.05;;
11988;SDS011;6054;50.966;7.094;2022-12-20T01:23:27;4.72;;;2.45;;
11988;SDS011;6054;50.966;7.094;2022-12-20T01:25:56;4.03;;;2.10;;
11988;SDS011;6054;50.966;7.094;2022-12-20T01:28:24;2.95;;;2.10;;
11988;SDS011;6054;50.966;7.094;2022-12-20T01:30:50;1.83;;;1.73;;
11988;SDS011;6054;50.966;7.094;2022-12-20T01:33:19;3.30;;;2.15;;
11988;SDS011;6054;50.966;7.094;2022-12-20T01:35:53;2.22;;;2.03;;
11988;SDS011;6054;50.966;7.094;2022-12-20T01:38:21;4.07;;;2.42;;
11988;SDS011;6054;50.966;7.094;2022-12-20T01:40:47;3.75;;;2.55;;
11988;SDS011;6054;50.966;7.094;2022-12-20T01:43:14;4.07;;;2.67;;
11988;SDS011;6054;50.966;7.094;2022-12-20T01:45:43;4.68;;;2.38;;
11988;SDS011;6054;50.966;7.094;2022-12-20T01:48:11;4.28;;;2.83;;
11988;SDS011;6054;50.966;7.094;2022-12-20T01:50:41;3.35;;;2.78;;
11988;SDS011;6054;50.966;7.094;2022-12-20T01:53:08;6.40;;;2.88;;
11988;SDS011;6054;50.966;7.094;2022-12-20T01:55:35;3.28;;;2.70;;
11988;SDS011;6054;50.966;7.094;2022-12-20T01:58:03;2.58;;;2.35;;
11988;SDS011;6054;50.966;7.094;2022-12-20T02:00:33;4.55;;;3.00;;
11988;SDS011;6054;50.966;7.094;2022-12-20T02:03:02;4.03;;;3.30;;
11988;SDS011;6054;50.966;7.094;2022-12-20T02:05:33;3.95;;;3.30;;
11988;SDS011;6054;50.966;7.094;2022-12-20T02:08:02;3.22;;;2.90;;
11988;SDS011;6054;50.966;7.094;2022-12-20T02:10:34;4.45;;;3.15;;
11988;SDS011;6054;50.966;7.094;2022-12-20T02:13:11;3.97;;;3.05;;
11988;SDS011;6054;50.966;7.094;2022-12-20T02:15:46;6.05;;;3.17;;
11988;SDS011;6054;50.966;7.094;2022-12-20T02:18:21;5.50;;;3.25;;
11988;SDS011;6054;50.966;7.094;2022-12-20T02:20:54;5.50;;;3.15;;
11988;SDS011;6054;50.966;7.094;2022-12-20T02:27:10;5.38;;;3.05;;
11988;SDS011;6054;50.966;7.094;2022-12-20T02:30:07;5.68;;;2.78;;
11988;SDS011;6054;50.966;7.094;2022-12-20T02:32:37;5.32;;;3.42;;
11988;SDS011;6054;50.966;7.094;2022-12-20T02:35:07;5.05;;;2.92;;
11988;SDS011;6054;50.966;7.094;2022-12-20T02:37:35;4.57;;;3.08;;
11988;SDS011;6054;50.966;7.094;2022-12-20T02:40:02;3.40;;;3.08;;
11988;SDS011;6054;50.966;7.094;2022-12-20T02:42:30;4.63;;;3.00;;
11988;SDS011;6054;50.966;7.094;2022-12-20T02:45:00;6.00;;;3.33;;
11988;SDS011;6054;50.966;7.094;2022-12-20T02:47:41;4.30;;;3.25;;
11988;SDS011;6054;50.966;7.094;2022-12-20T02:50:13;4.05;;;3.10;;
11988;SDS011;6054;50.966;7.094;2022-12-20T02:52:43;4.65;;;3.00;;
11988;SDS011;6054;50.966;7.094;2022-12-20T02:55:10;4.53;;;2.83;;
11988;SDS011;6054;50.966;7.094;2022-12-20T02:57:38;5.65;;;3.08;;
11988;SDS011;6054;50.966;7.094;2022-12-20T03:00:11;4.97;;;3.13;;
11988;SDS011;6054;50.966;7.094;2022-12-20T03:02:42;5.25;;;3.10;;
11988;SDS011;6054;50.966;7.094;2022-12-20T03:05:28;4.07;;;3.22;;
11988;SDS011;6054;50.966;7.094;2022-12-20T03:07:55;4.47;;;3.20;;
11988;SDS011;6054;50.966;7.094;2022-12-20T03:10:22;3.55;;;3.03;;
11988;SDS011;6054;50.966;7.094;2022-12-20T03:12:49;3.97;;;3.08;;
11988;SDS011;6054;50.966;7.094;2022-12-20T03:15:16;6.30;;;3.30;;
11988;SDS011;6054;50.966;7.094;2022-12-20T03:17:44;4.05;;;3.00;;
11988;SDS011;6054;50.966;7.094;2022-12-20T03:20:10;5.03;;;3.40;;
11988;SDS011;6054;50.966;7.094;2022-12-20T03:22:37;5.07;;;3.30;;
11988;SDS011;6054;50.966;7.094;2022-12-20T03:25:05;4.43;;;3.08;;
11988;SDS011;6054;50.966;7.094;2022-12-20T03:27:32;4.85;;;3.05;;
11988;SDS011;6054;50.966;7.094;2022-12-20T03:29:59;5.18;;;3.00;;
11988;SDS011;6054;50.966;7.094;2022-12-20T03:32:26;3.42;;;3.10;;
11988;SDS011;6054;50.966;7.094;2022-12-20T03:34:54;6.60;;;3.20;;
11988;SDS011;6054;50.966;7.094;2022-12-20T03:37:20;4.03;;;3.15;;
11988;SDS011;6054;50.966;7.094;2022-12-20T03:39:48;6.03;;;3.05;;
11988;SDS011;6054;50.966;7.094;2022-12-20T03:42:14;5.50;;;2.80;;
11988;SDS011;6054;50.966;7.094;2022-12-20T03:44:41;3.45;;;3.00;;
11988;SDS011;6054;50.966;7.094;2022-12-20T03:47:08;4.85;;;3.17;;
11988;SDS011;6054;50.966;7.094;2022-12-20T03:49:34;3.92;;;2.95;;
11988;SDS011;6054;50.966;7.094;2022-12-20T03:52:03;5.10;;;2.70;;
11988;SDS011;6054;50.966;7.094;2022-12-20T03:54:29;3.53;;;2.95;;
11988;SDS011;6054;50.966;7.094;2022-12-20T03:56:56;4.65;;;2.88;;
11988;SDS011;6054;50.966;7.094;2022-12-20T03:59:23;4.22;;;2.80;;
11988;SDS011;6054;50.966;7.094;2022-12-20T04:01:50;5.55;;;3.00;;
11988;SDS011;6054;50.966;7.094;2022-12-20T04:04:17;6.63;;;3.00;;
11988;SDS011;6054;50.966;7.094;2022-12-20T04:06:43;5.22;;;3.05;;
11988;SDS011;6054;50.966;7.094;2022-12-20T04:09:12;5.68;;;3.10;;
11988;SDS011;6054;50.966;7.094;2022-12-20T04:11:38;4.85;;;2.83;;
11988;SDS011;6054;50.966;7.094;2022-12-20T04:14:05;3.15;;;2.88;;
11988;SDS011;6054;50.966;7.094;2022-12-20T04:16:32;4.72;;;3.17;;
11988;SDS011;6054;50.966;7.094;2022-12-20T04:19:00;6.40;;;2.97;;
11988;SDS011;6054;50.966;7.094;2022-12-20T04:21:29;5.05;;;3.17;;
11988;SDS011;6054;50.966;7.094;2022-12-20T04:23:57;5.80;;;3.30;;
11988;SDS011;6054;50.966;7.094;2022-12-20T04:26:27;5.75;;;3.45;;
11988;SDS011;6054;50.966;7.094;2022-12-20T04:28:54;4.32;;;3.00;;
11988;SDS011;6054;50.966;7.094;2022-12-20T04:31:22;8.38;;;3.22;;
11988;SDS011;6054;50.966;7.094;2022-12-20T04:33:49;4.97;;;3.35;;
11988;SDS011;6054;50.966;7.094;2022-12-20T04:36:16;5.65;;;3.13;;
11988;SDS011;6054;50.966;7.094;2022-12-20T04:38:44;4.95;;;3.15;;
11988;SDS011;6054;50.966;7.094;2022-12-20T04:41:11;5.72;;;3.20;;
11988;SDS011;6054;50.966;7.094;2022-12-20T04:43:47;4.55;;;3.08;;
11988;SDS011;6054;50.966;7.094;2022-12-20T04:46:15;4.95;;;3.15;;
11988;SDS011;6054;50.966;7.094;2022-12-20T04:48:41;6.38;;;3.00;;
11988;SDS011;6054;50.966;7.094;2022-12-20T04:51:08;8.43;;;3.20;;
11988;SDS011;6054;50.966;7.094;2022-12-20T04:53:35;5.43;;;3.40;;
11988;SDS011;6054;50.966;7.094;2022-12-20T04:56:16;8.30;;;3.47;;
11988;SDS011;6054;50.966;7.094;2022-12-20T04:58:45;3.72;;;3.17;;
11988;SDS011;6054;50.966;7.094;2022-12-20T05:01:15;7.10;;;3.42;;
11988;SDS011;6054;50.966;7.094;2022-12-20T05:03:42;5.30;;;3.20;;
11988;SDS011;6054;50.966;7.094;2022-12-20T05:06:09;7.40;;;3.47;;
11988;SDS011;6054;50.966;7.094;2022-12-20T05:08:36;6.10;;;3.20;;
11988;SDS011;6054;50.966;7.094;2022-12-20T05:11:04;6.68;;;3.25;;
11988;SDS011;6054;50.966;7.094;2022-12-20T05:13:31;6.00;;;3.55;;
11988;SDS011;6054;50.966;7.094;2022-12-20T05:16:00;5.40;;;3.47;;
11988;SDS011;6054;50.966;7.094;2022-12-20T05:18:27;3.60;;;3.00;;
11988;SDS011;6054;50.966;7.094;2022-12-20T05:20:55;4.45;;;3.20;;
11988;SDS011;6054;50.966;7.094;2022-12-20T05:23:40;3.42;;;3.13;;
11988;SDS011;6054;50.966;7.094;2022-12-20T05:26:25;4.68;;;3.47;;
11988;SDS011;6054;50.966;7.094;2022-12-20T05:28:54;4.60;;;3.30;;
11988;SDS011;6054;50.966;7.094;2022-12-20T05:31:22;6.82;;;3.03;;
11988;SDS011;6054;50.966;7.094;2022-12-20T05:33:48;5.65;;;3.10;;
11988;SDS011;6054;50.966;7.094;2022-12-20T05:36:15;6.50;;;3.42;;
11988;SDS011;6054;50.966;7.094;2022-12-20T05:38:42;4.57;;;3.20;;
11988;SDS011;6054;50.966;7.094;2022-12-20T05:41:09;5.57;;;3.33;;
11988;SDS011;6054;50.966;7.094;2022-12-20T05:43:35;4.95;;;3.20;;
11988;SDS011;6054;50.966;7.094;2022-12-20T05:46:02;5.88;;;3.28;;
11988;SDS011;6054;50.966;7.094;2022-12-20T05:48:30;4.70;;;3.20;;
11988;SDS011;6054;50.966;7.094;2022-12-20T05:50:58;4.38;;;3.08;;
11988;SDS011;6054;50.966;7.094;2022-12-20T05:53:25;5.22;;;2.90;;
11988;SDS011;6054;50.966;7.094;2022-12-20T05:55:52;5.82;;;3.05;;
11988;SDS011;6054;50.966;7.094;2022-12-20T05:58:19;4.43;;;3.10;;
11988;SDS011;6054;50.966;7.094;2022-12-20T06:00:46;3.53;;;3.15;;
11988;SDS011;6054;50.966;7.094;2022-12-20T06:03:13;3.08;;;2.72;;
11988;SDS011;6054;50.966;7.094;2022-12-20T06:05:42;4.93;;;3.00;;
11988;SDS011;6054;50.966;7.094;2022-12-20T06:08:10;5.38;;;3.13;;
11988;SDS011;6054;50.966;7.094;2022-12-20T06:10:38;6.13;;;3.45;;
11988;SDS011;6054;50.966;7.094;2022-12-20T06:13:05;7.30;;;3.10;;
11988;SDS011;6054;50.966;7.094;2022-12-20T06:15:33;6.47;;;3.10;;
11988;SDS011;6054;50.966;7.094;2022-12-20T06:18:00;5.38;;;3.30;;
11988;SDS011;6054;50.966;7.094;2022-12-20T06:20:27;3.30;;;2.95;;
11988;SDS011;6054;50.966;7.094;2022-12-20T06:22:56;4.22;;;2.90;;
11988;SDS011;6054;50.966;7.094;2022-12-20T06:25:23;5.25;;;3.10;;
11988;SDS011;6054;50.966;7.094;2022-12-20T06:27:50;5.47;;;2.95;;
11988;SDS011;6054;50.966;7.094;2022-12-20T06:30:17;4.63;;;3.20;;
11988;SDS011;6054;50.966;7.094;2022-12-20T06:32:44;5.70;;;2.70;;
11988;SDS011;6054;50.966;7.094;2022-12-20T06:35:11;4.20;;;3.00;;
11988;SDS011;6054;50.966;7.094;2022-12-20T06:37:38;4.40;;;3.15;;
11988;SDS011;6054;50.966;7.094;2022-12-20T06:40:08;7.15;;;3.53;;
11988;SDS011;6054;50.966;7.094;2022-12-20T06:42:35;5.93;;;3.10;;
11988;SDS011;6054;50.966;7.094;2022-12-20T06:45:02;5.68;;;3.25;;
11988;SDS011;6054;50.966;7.094;2022-12-20T06:47:29;5.72;;;2.92;;
11988;SDS011;6054;50.966;7.094;2022-12-20T06:49:56;4.35;;;3.05;;
11988;SDS011;6054;50.966;7.094;2022-12-20T06:52:23;3.95;;;2.95;;
11988;SDS011;6054;50.966;7.094;2022-12-20T06:54:50;4.00;;;2.78;;
11988;SDS011;6054;50.966;7.094;2022-12-20T06:57:18;5.13;;;2.80;;
11988;SDS011;6054;50.966;7.094;2022-12-20T06:59:44;4.68;;;2.90;;
11988;SDS011;6054;50.966;7.094;2022-12-20T07:02:11;4.70;;;3.42;;
11988;SDS011;6054;50.966;7.094;2022-12-20T07:04:38;5.50;;;2.80;;
11988;SDS011;6054;50.966;7.094;2022-12-20T07:07:05;3.97;;;3.42;;
11988;SDS011;6054;50.966;7.094;2022-12-20T07:09:32;4.00;;;3.22;;
11988;SDS011;6054;50.966;7.094;2022-12-20T07:11:59;8.57;;;2.65;;
11988;SDS011;6054;50.966;7.094;2022-12-20T07:14:27;4.43;;;2.67;;
11988;SDS011;6054;50.966;7.094;2022-12-20T07:16:54;3.47;;;2.95;;
11988;SDS011;6054;50.966;7.094;2022-12-20T07:19:20;5.38;;;2.92;;
11988;SDS011;6054;50.966;7.094;2022-12-20T07:21:47;4.60;;;3.20;;
11988;SDS011;6054;50.966;7.094;2022-12-20T07:24:14;8.23;;;3.33;;
11988;SDS011;6054;50.966;7.094;2022-12-20T07:26:42;4.30;;;3.10;;
11988;SDS011;6054;50.966;7.094;2022-12-20T07:29:09;5.97;;;3.28;;
11988;SDS011;6054;50.966;7.094;2022-12-20T07:31:38;3.63;;;2.72;;
11988;SDS011;6054;50.966;7.094;2022-12-20T07:34:04;3.92;;;2.63;;
11988;SDS011;6054;50.966;7.094;2022-12-20T07:36:31;4.65;;;2.70;;
11988;SDS011;6054;50.966;7.094;2022-12-20T07:38:58;3.97;;;2.90;;
11988;SDS011;6054;50.966;7.094;2022-12-20T07:41:25;4.07;;;2.83;;
11988;SDS011;6054;50.966;7.094;2022-12-20T07:43:51;4.30;;;2.80;;
11988;SDS011;6054;50.966;7.094;2022-12-20T07:46:18;5.80;;;3.00;;
11988;SDS011;6054;50.966;7.094;2022-12-20T07:48:46;5.15;;;2.50;;
11988;SDS011;6054;50.966;7.094;2022-12-20T07:51:14;6.38;;;3.15;;
11988;SDS011;6054;50.966;7.094;2022-12-20T07:53:44;6.00;;;3.13;;
11988;SDS011;6054;50.966;7.094;2022-12-20T07:56:13;4.75;;;3.05;;
11988;SDS011;6054;50.966;7.094;2022-12-20T07:58:41;4.88;;;3.33;;
11988;SDS011;6054;50.966;7.094;2022-12-20T08:01:09;4.18;;;3.30;;
11988;SDS011;6054;50.966;7.094;2022-12-20T08:03:37;6.60;;;3.40;;
11988;SDS011;6054;50.966;7.094;2022-12-20T08:06:08;6.28;;;3.47;;
11988;SDS011;6054;50.966;7.094;2022-12-20T08:08:36;2.97;;;2.50;;
11988;SDS011;6054;50.966;7.094;2022-12-20T08:11:05;7.55;;;3.10;;
11988;SDS011;6054;50.966;7.094;2022-12-20T08:13:33;6.20;;;3.95;;
11988;SDS011;6054;50.966;7.094;2022-12-20T08:16:00;5.05;;;3.63;;
11988;SDS011;6054;50.966;7.094;2022-12-20T08:18:27;3.30;;;2.83;;
11988;SDS011;6054;50.966;7.094;2022-12-20T08:20:54;4.63;;;3.47;;
11988;SDS011;6054;50.966;7.094;2022-12-20T08:23:23;4.25;;;3.00;;
11988;SDS011;6054;50.966;7.094;2022-12-20T08:25:49;4.55;;;3.13;;
11988;SDS011;6054;50.966;7.094;2022-12-20T08:28:16;6.82;;;3.33;;
11988;SDS011;6054;50.966;7.094;2022-12-20T08:30:43;4.28;;;3.42;;
11988;SDS011;6054;50.966;7.094;2022-12-20T08:33:10;7.72;;;3.08;;
11988;SDS011;6054;50.966;7.094;2022-12-20T08:35:37;4.18;;;3.20;;
11988;SDS011;6054;50.966;7.094;2022-12-20T08:38:04;3.97;;;2.95;;
11988;SDS011;6054;50.966;7.094;2022-12-20T08:40:33;3.15;;;2.80;;
11988;SDS011;6054;50.966;7.094;2022-12-20T08:42:59;3.83;;;2.83;;
11988;SDS011;6054;50.966;7.094;2022-12-20T08:45:26;3.85;;;2.88;;
11988;SDS011;6054;50.966;7.094;2022-12-20T08:47:53;3.47;;;3.17;;
11988;SDS011;6054;50.966;7.094;2022-12-20T08:50:20;3.45;;;2.90;;
11988;SDS011;6054;50.966;7.094;2022-12-20T08:52:46;3.25;;;2.92;;
11988;SDS011;6054;50.966;7.094;2022-12-20T08:55:13;4.10;;;2.78;;
11988;SDS011;6054;50.966;7.094;2022-12-20T08:57:41;5.90;;;3.63;;
11988;SDS011;6054;50.966;7.094;2022-12-20T09:00:08;4.80;;;3.50;;
11988;SDS011;6054;50.966;7.094;2022-12-20T09:02:36;8.93;;;4.85;;
11988;SDS011;6054;50.966;7.094;2022-12-20T09:05:05;8.57;;;3.85;;
11988;SDS011;6054;50.966;7.094;2022-12-20T09:07:32;5.88;;;3.60;;
11988;SDS011;6054;50.966;7.094;2022-12-20T09:09:59;4.20;;;3.28;;
11988;SDS011;6054;50.966;7.094;2022-12-20T09:12:26;4.30;;;3.08;;
11988;SDS011;6054;50.966;7.094;2022-12-20T09:14:54;5.55;;;2.70;;
11988;SDS011;6054;50.966;7.094;2022-12-20T09:17:21;4.68;;;2.92;;
11988;SDS011;6054;50.966;7.094;2022-12-20T09:19:48;4.57;;;2.28;;
11988;SDS011;6054;50.966;7.094;2022-12-20T09:22:15;4.22;;;2.33;;
11988;SDS011;6054;50.966;7.094;2022-12-20T09:24:41;4.47;;;2.45;;
11988;SDS011;6054;50.966;7.094;2022-12-20T09:27:08;3.13;;;2.78;;
11988;SDS011;6054;50.966;7.094;2022-12-20T09:29:35;3.42;;;2.58;;
11988;SDS011;6054;50.966;7.094;2022-12-20T09:32:03;4.05;;;2.65;;
11988;SDS011;6054;50.966;7.094;2022-12-20T09:34:30;3.22;;;2.55;;
11988;SDS011;6054;50.966;7.094;2022-12-20T09:36:57;6.68;;;3.22;;
11988;SDS011;6054;50.966;7.094;2022-12-20T09:39:23;2.95;;;2.58;;
11988;SDS011;6054;50.966;7.094;2022-12-20T09:41:50;6.13;;;2.97;;
11988;SDS011;6054;50.966;7.094;2022-12-20T09:44:17;3.97;;;2.97;;
11988;SDS011;6054;50.966;7.094;2022-12-20T09:46:49;4.25;;;2.88;;
11988;SDS011;6054;50.966;7.094;2022-12-20T09:49:21;3.20;;;2.90;;
11988;SDS011;6054;50.966;7.094;2022-12-20T09:51:56;3.88;;;3.08;;
11988;SDS011;6054;50.966;7.094;2022-12-20T09:54:41;3.80;;;2.78;;
11988;SDS011;6054;50.966;7.094;2022-12-20T09:57:17;3.75;;;2.67;;
11988;SDS011;6054;50.966;7.094;2022-12-20T09:59:52;4.43;;;2.53;;
11988;SDS011;6054;50.966;7.094;2022-12-20T10:02:22;8.20;;;3.00;;
11988;SDS011;6054;50.966;7.094;2022-12-20T10:04:51;4.93;;;2.50;;
11988;SDS011;6054;50.966;7.094;2022-12-20T10:07:21;4.70;;;2.78;;
11988;SDS011;6054;50.966;7.094;2022-12-20T10:10:09;3.08;;;2.50;;
11988;SDS011;6054;50.966;7.094;2022-12-20T10:12:49;5.90;;;2.88;;
11988;SDS011;6054;50.966;7.094;2022-12-20T10:15:21;7.00;;;2.65;;
11988;SDS011;6054;50.966;7.094;2022-12-20T10:17:57;4.60;;;2.70;;
11988;SDS011;6054;50.966;7.094;2022-12-20T10:20:45;5.20;;;2.70;;
11988;SDS011;6054;50.966;7.094;2022-12-20T10:23:23;4.18;;;2.72;;
11988;SDS011;6054;50.966;7.094;2022-12-20T10:25:54;4.50;;;3.10;;
11988;SDS011;6054;50.966;7.094;2022-12-20T10:28:22;7.55;;;2.70;;
11988;SDS011;6054;50.966;7.094;2022-12-20T10:30:51;4.07;;;2.65;;
11988;SDS011;6054;50.966;7.094;2022-12-20T10:33:19;4.78;;;2.63;;
11988;SDS011;6054;50.966;7.094;2022-12-20T10:35:49;6.10;;;2.97;;
11988;SDS011;6054;50.966;7.094;2022-12-20T10:38:16;8.65;;;2.72;;
11988;SDS011;6054;50.966;7.094;2022-12-20T10:40:45;6.05;;;2.85;;
11988;SDS011;6054;50.966;7.094;2022-12-20T10:43:14;3.55;;;2.88;;
11988;SDS011;6054;50.966;7.094;2022-12-20T10:45:44;4.38;;;2.42;;
11988;SDS011;6054;50.966;7.094;2022-12-20T10:48:23;3.25;;;2.55;;
11988;SDS011;6054;50.966;7.094;2022-12-20T10:50:57;5.80;;;2.70;;
11988;SDS011;6054;50.966;7.094;2022-12-20T10:53:25;2.75;;;2.50;;
11988;SDS011;6054;50.966;7.094;2022-12-20T10:55:53;3.95;;;2.40;;
11988;SDS011;6054;50.966;7.094;2022-12-20T10:58:34;2.60;;;2.40;;
11988;SDS011;6054;50.966;7.094;2022-12-20T11:01:02;3.55;;;2.25;;
11988;SDS011;6054;50.966;7.094;2022-12-20T11:03:48;3.83;;;2.78;;
11988;SDS011;6054;50.966;7.094;2022-12-20T11:06:21;5.07;;;2.20;;
11988;SDS011;6054;50.966;7.094;2022-12-20T11:08:49;4.18;;;2.88;;
11988;SDS011;6054;50.966;7.094;2022-12-20T11:11:17;3.45;;;2.85;;
11988;SDS011;6054;50.966;7.094;2022-12-20T11:13:46;3.15;;;2.92;;
11988;SDS011;6054;50.966;7.094;2022-12-20T11:16:24;3.67;;;2.78;;
11988;SDS011;6054;50.966;7.094;2022-12-20T11:19:01;4.47;;;2.58;;
11988;SDS011;6054;50.966;7.094;2022-12-20T11:21:47;2.42;;;1.90;;
11988;SDS011;6054;50.966;7.094;2022-12-20T11:24:22;3.63;;;2.40;;
11988;SDS011;6054;50.966;7.094;2022-12-20T11:26:59;2.40;;;1.90;;
11988;SDS011;6054;50.966;7.094;2022-12-20T11:29:52;3.80;;;2.10;;
11988;SDS011;6054;50.966;7.094;2022-12-20T11:33:00;2.20;;;1.83;;
11988;SDS011;6054;50.966;7.094;2022-12-20T11:35:44;4.80;;;2.00;;
11988;SDS011;6054;50.966;7.094;2022-12-20T11:38:20;4.68;;;1.90;;
11988;SDS011;6054;50.966;7.094;2022-12-20T11:40:59;4.63;;;1.90;;
11988;SDS011;6054;50.966;7.094;2022-12-20T11:43:46;4.15;;;2.30;;
11988;SDS011;6054;50.966;7.094;2022-12-20T11:46:39;2.60;;;1.90;;
11988;SDS011;6054;50.966;7.094;2022-12-20T11:49:18;3.22;;;2.33;;
11988;SDS011;6054;50.966;7.094;2022-12-20T11:52:15;3.88;;;1.90;;
11988;SDS011;6054;50.966;7.094;2022-12-20T11:54:55;3.58;;;2.13;;
11988;SDS011;6054;50.966;7.094;2022-12-20T11:57:31;2.08;;;1.83;;
11988;SDS011;6054;50.966;7.094;2022-12-20T12:00:04;3.70;;;1.75;;
11988;SDS011;6054;50.966;7.094;2022-12-20T12:02:33;3.30;;;2.15;;
11988;SDS011;6054;50.966;7.094;2022-12-20T12:05:15;3.95;;;1.92;;
11988;SDS011;6054;50.966;7.094;2022-12-20T12:07:47;2.55;;;1.95;;
11988;SDS011;6054;50.966;7.094;2022-12-20T12:10:21;4.60;;;2.47;;
11988;SDS011;6054;50.966;7.094;2022-12-20T12:12:51;4.03;;;1.80;;
11988;SDS011;6054;50.966;7.094;2022-12-20T12:15:26;2.45;;;2.17;;
11988;SDS011;6054;50.966;7.094;2022-12-20T12:17:58;3.75;;;1.83;;
11988;SDS011;6054;50.966;7.094;2022-12-20T12:20:30;4.50;;;2.72;;
11988;SDS011;6054;50.966;7.094;2022-12-20T12:23:06;7.32;;;5.07;;
11988;SDS011;6054;50.966;7.094;2022-12-20T12:25:40;5.90;;;3.42;;
11988;SDS011;6054;50.966;7.094;2022-12-20T12:28:08;4.78;;;2.13;;
11988;SDS011;6054;50.966;7.094;2022-12-20T12:30:38;4.05;;;3.53;;
11988;SDS011;6054;50.966;7.094;2022-12-20T12:33:10;4.38;;;2.10;;
11988;SDS011;6054;50.966;7.094;2022-12-20T12:44:39;4.53;;;2.67;;
11988;SDS011;6054;50.966;7.094;2022-12-20T12:47:13;4.65;;;2.90;;
11988;SDS011;6054;50.966;7.094;2022-12-20T12:49:46;4.97;;;3.33;;
11988;SDS011;6054;50.966;7.094;2022-12-20T12:52:28;4.53;;;4.13;;
11988;SDS011;6054;50.966;7.094;2022-12-20T12:58:27;8.88;;;3.80;;
11988;SDS011;6054;50.966;7.094;2022-12-20T13:00:59;4.30;;;3.28;;
11988;SDS011;6054;50.966;7.094;2022-12-20T13:06:42;12.50;;;4.00;;
11988;SDS011;6054;50.966;7.094;2022-12-20T13:09:37;7.63;;;4.53;;
11988;SDS011;6054;50.966;7.094;2022-12-20T13:18:27;8.45;;;4.03;;
11988;SDS011;6054;50.966;7.094;2022-12-20T13:38:55;7.38;;;4.97;;
11988;SDS011;6054;50.966;7.094;2022-12-20T13:41:30;5.45;;;3.65;;
11988;SDS011;6054;50.966;7.094;2022-12-20T13:44:08;5.82;;;3.45;;
11988;SDS011;6054;50.966;7.094;2022-12-20T13:46:55;6.63;;;4.15;;
11988;SDS011;6054;50.966;7.094;2022-12-20T13:49:28;8.13;;;4.80;;
11988;SDS011;6054;50.966;7.094;2022-12-20T13:52:21;6.53;;;4.90;;
11988;SDS011;6054;50.966;7.094;2022-12-20T13:54:52;8.48;;;4.22;;
11988;SDS011;6054;50.966;7.094;2022-12-20T13:57:23;7.88;;;4.43;;
11988;SDS011;6054;50.966;7.094;2022-12-20T13:59:54;6.10;;;4.72;;
11988;SDS011;6054;50.966;7.094;2022-12-20T14:02:23;5.50;;;4.50;;
11988;SDS011;6054;50.966;7.094;2022-12-20T14:04:55;8.05;;;3.88;;
11988;SDS011;6054;50.966;7.094;2022-12-20T14:07:26;5.72;;;3.50;;
11988;SDS011;6054;50.966;7.094;2022-12-20T14:09:56;5.85;;;4.05;;
11988;SDS011;6054;50.966;7.094;2022-12-20T14:12:25;7.95;;;3.90;;
11988;SDS011;6054;50.966;7.094;2022-12-20T14:14:52;8.10;;;4.20;;
11988;SDS011;6054;50.966;7.094;2022-12-20T14:17:23;6.82;;;4.65;;
11988;SDS011;6054;50.966;7.094;2022-12-20T14:20:05;10.05;;;4.60;;
11988;SDS011;6054;50.966;7.094;2022-12-20T14:22:41;9.25;;;4.18;;
11988;SDS011;6054;50.966;7.094;2022-12-20T14:25:17;6.95;;;4.63;;
11988;SDS011;6054;50.966;7.094;2022-12-20T14:27:55;9.20;;;5.80;;
11988;SDS011;6054;50.966;7.094;2022-12-20T14:30:24;7.40;;;4.20;;
11988;SDS011;6054;50.966;7.094;2022-12-20T14:32:57;6.75;;;3.97;;
11988;SDS011;6054;50.966;7.094;2022-12-20T14:35:24;8.25;;;4.78;;
11988;SDS011;6054;50.966;7.094;2022-12-20T14:37:53;11.40;;;5.28;;
11988;SDS011;6054;50.966;7.094;2022-12-20T14:40:21;10.77;;;5.95;;
11988;SDS011;6054;50.966;7.094;2022-12-20T14:42:49;10.77;;;5.50;;
11988;SDS011;6054;50.966;7.094;2022-12-20T14:45:17;11.15;;;6.30;;
11988;SDS011;6054;50.966;7.094;2022-12-20T14:47:50;15.40;;;6.50;;
11988;SDS011;6054;50.966;7.094;2022-12-20T14:50:28;14.02;;;6.03;;
11988;SDS011;6054;50.966;7.094;2022-12-20T14:52:58;9.13;;;6.30;;
11988;SDS011;6054;50.966;7.094;2022-12-20T14:55:31;12.55;;;5.95;;
11988;SDS011;6054;50.966;7.094;2022-12-20T14:58:05;9.27;;;5.82;;
11988;SDS011;6054;50.966;7.094;2022-12-20T15:00:53;9.02;;;5.70;;
11988;SDS011;6054;50.966;7.094;2022-12-20T15:03:24;12.60;;;6.43;;
11988;SDS011;6054;50.966;7.094;2022-12-20T15:05:52;9.95;;;5.35;;
11988;SDS011;6054;50.966;7.094;2022-12-20T15:08:22;7.95;;;5.18;;
11988;SDS011;6054;50.966;7.094;2022-12-20T15:10:55;11.07;;;4.72;;
11988;SDS011;6054;50.966;7.094;2022-12-20T15:13:25;6.05;;;4.03;;
11988;SDS011;6054;50.966;7.094;2022-12-20T15:15:54;6.95;;;4.07;;
11988;SDS011;6054;50.966;7.094;2022-12-20T15:18:24;7.90;;;3.75;;
11988;SDS011;6054;50.966;7.094;2022-12-20T15:20:54;7.13;;;3.70;;
11988;SDS011;6054;50.966;7.094;2022-12-20T15:23:27;5.53;;;3.50;;
11988;SDS011;6054;50.966;7.094;2022-12-20T15:25:55;9.02;;;3.92;;
11988;SDS011;6054;50.966;7.094;2022-12-20T15:28:22;11.52;;;3.35;;
11988;SDS011;6054;50.966;7.094;2022-12-20T15:30:50;7.65;;;3.42;;
11988;SDS011;6054;50.966;7.094;2022-12-20T15:33:19;8.57;;;3.33;;
11988;SDS011;6054;50.966;7.094;2022-12-20T15:35:47;4.55;;;3.33;;
11988;SDS011;6054;50.966;7.094;2022-12-20T15:38:16;7.50;;;3.70;;
11988;SDS011;6054;50.966;7.094;2022-12-20T15:40:46;10.70;;;4.00;;
11988;SDS011;6054;50.966;7.094;2022-12-20T15:43:15;5.63;;;4.00;;
11988;SDS011;6054;50.966;7.094;2022-12-20T15:45:44;7.45;;;4.30;;
11988;SDS011;6054;50.966;7.094;2022-12-20T15:48:13;13.13;;;8.63;;
11988;SDS011;6054;50.966;7.094;2022-12-20T15:50:42;10.48;;;5.78;;
11988;SDS011;6054;50.966;7.094;2022-12-20T15:53:14;8.05;;;5.03;;
11988;SDS011;6054;50.966;7.094;2022-12-20T15:55:47;7.35;;;3.35;;
11988;SDS011;6054;50.966;7.094;2022-12-20T15:58:19;9.45;;;3.70;;
11988;SDS011;6054;50.966;7.094;2022-12-20T16:00:46;7.68;;;3.80;;
11988;SDS011;6054;50.966;7.094;2022-12-20T16:03:13;6.43;;;3.60;;